Terminal Aerodrome Forecast
Issued by NWS Rapid City, SD

Home | Current Version | Previous Version | Graphics & Text | Print | Product List | Glossary On
Versions: 1 2 3 4 5 6 7 8 9 10 11 12 13 14 15 16 17 18 19 20 21 22 23 24 25 26 27 28
000
FTUS43 KUNR 292200 AAB
TAFRAP
TAF AMD
KRAP 292257Z 2923/3018 10008KT P6SM OVC006
     FM300200 04011KT P6SM -RA OVC006
     FM300500 04015KT 1SM +RA BR OVC008
     FM301100 36020G30KT 3SM -RA BR OVC015=

USA.gov is the U.S. government's official web portal to all federal, state and local government web resources and services.